createdAt,value
2018-03-03T00:00:32.163Z,961.62
2018-03-03T00:01:32.091Z,961.60
2018-03-03T00:02:32.007Z,961.62
2018-03-03T00:03:31.890Z,961.59
2018-03-03T00:04:31.815Z,961.57
2018-03-03T00:05:31.747Z,961.62
2018-03-03T00:06:31.659Z,961.63
2018-03-03T00:07:31.552Z,961.60
2018-03-03T00:08:31.465Z,961.58
2018-03-03T00:09:31.392Z,961.55
2018-03-03T00:10:31.289Z,961.60
2018-03-03T00:11:31.212Z,961.59
2018-03-03T00:12:31.121Z,961.63
2018-03-03T00:13:31.043Z,961.64
2018-03-03T00:14:30.958Z,961.59
2018-03-03T00:15:30.857Z,961.59
2018-03-03T00:16:30.780Z,961.61
2018-03-03T00:17:30.679Z,961.56
2018-03-03T00:18:30.600Z,961.58
2018-03-03T00:19:30.513Z,961.56
2018-03-03T00:20:30.424Z,961.57
2018-03-03T00:21:30.339Z,961.56
2018-03-03T00:22:30.246Z,961.55
2018-03-03T00:23:30.158Z,961.49
2018-03-03T00:24:30.077Z,961.52
2018-03-03T00:25:29.990Z,961.52
2018-03-03T00:26:29.912Z,961.52
2018-03-03T00:27:29.822Z,961.54
2018-03-03T00:28:29.729Z,961.50
2018-03-03T00:29:29.622Z,961.52
2018-03-03T00:30:29.564Z,961.53
2018-03-03T00:31:29.469Z,961.56
2018-03-03T00:32:29.384Z,961.58
2018-03-03T00:33:29.299Z,961.57
2018-03-03T00:34:29.215Z,961.63
2018-03-03T00:35:29.121Z,961.64
2018-03-03T00:36:29.030Z,961.70
2018-03-03T00:37:28.932Z,961.70
2018-03-03T00:38:28.855Z,961.69
2018-03-03T00:39:28.753Z,961.72
2018-03-03T00:40:28.690Z,961.72
2018-03-03T00:41:28.585Z,961.72
2018-03-03T00:42:28.518Z,961.72
2018-03-03T00:43:28.428Z,961.74
2018-03-03T00:44:28.340Z,961.72
2018-03-03T00:45:28.251Z,961.75
2018-03-03T00:46:28.179Z,961.73
2018-03-03T00:47:28.070Z,961.72
2018-03-03T00:48:28.210Z,961.74
2018-03-03T00:49:27.902Z,961.73
2018-03-03T00:50:27.806Z,961.72
2018-03-03T00:51:27.727Z,961.69
2018-03-03T00:52:27.637Z,961.70
2018-03-03T00:53:27.544Z,961.68
2018-03-03T00:54:27.453Z,961.73
2018-03-03T00:55:27.304Z,961.70
2018-03-03T00:56:27.216Z,961.66
2018-03-03T00:57:27.129Z,961.70
2018-03-03T00:58:27.041Z,961.70
2018-03-03T00:59:26.953Z,961.72
2018-03-03T01:00:26.867Z,961.76
2018-03-03T01:01:26.777Z,961.76
2018-03-03T01:02:26.697Z,961.81
2018-03-03T01:03:26.601Z,961.79
2018-03-03T01:04:26.521Z,961.80
2018-03-03T01:05:26.425Z,961.76
2018-03-03T01:06:26.339Z,961.71
2018-03-03T01:07:26.251Z,961.69
2018-03-03T01:08:26.164Z,961.69
2018-03-03T01:09:26.076Z,961.72
2018-03-03T01:10:25.990Z,961.78
2018-03-03T01:11:25.901Z,961.84
2018-03-03T01:12:25.813Z,961.82
2018-03-03T01:13:25.725Z,961.89
2018-03-03T01:14:25.652Z,961.94
2018-03-03T01:15:25.550Z,961.90
2018-03-03T01:16:25.469Z,961.91
2018-03-03T01:17:25.372Z,961.94
2018-03-03T01:18:25.288Z,961.93
2018-03-03T01:19:25.198Z,961.93
2018-03-03T01:20:25.112Z,961.94
2018-03-03T01:21:25.022Z,961.91
2018-03-03T01:22:24.934Z,961.92
2018-03-03T01:23:24.851Z,961.97
2018-03-03T01:24:24.761Z,961.98
2018-03-03T01:25:24.718Z,962.03
2018-03-03T01:26:24.584Z,962.03
2018-03-03T01:27:24.496Z,962.02
2018-03-03T01:28:24.408Z,962.07
2018-03-03T01:29:24.321Z,962.09
2018-03-03T01:30:24.235Z,962.06
2018-03-03T01:31:24.143Z,962.10
2018-03-03T01:32:24.091Z,962.13
2018-03-03T01:33:23.970Z,962.07
2018-03-03T01:34:23.883Z,962.06
2018-03-03T01:35:23.793Z,962.02
2018-03-03T01:36:23.705Z,961.98
2018-03-03T01:37:23.620Z,961.96
2018-03-03T01:38:23.531Z,961.99
2018-03-03T01:39:23.444Z,962.00
2018-03-03T01:40:23.356Z,961.94
2018-03-03T01:41:23.266Z,961.89
2018-03-03T01:42:23.178Z,961.84
2018-03-03T01:43:23.128Z,961.86
2018-03-03T01:44:23.009Z,961.81
2018-03-03T01:45:22.921Z,961.85
2018-03-03T01:46:22.828Z,961.88
2018-03-03T01:47:22.755Z,961.91
2018-03-03T01:48:22.652Z,961.97
2018-03-03T01:49:22.565Z,961.99
2018-03-03T01:50:22.478Z,961.96
2018-03-03T01:51:22.390Z,961.96
2018-03-03T01:52:22.302Z,961.95
2018-03-03T01:53:22.215Z,961.96
2018-03-03T01:54:22.128Z,961.98
2018-03-03T01:55:22.040Z,961.96
2018-03-03T01:56:21.954Z,961.94
2018-03-03T01:57:21.863Z,961.97
2018-03-03T01:58:21.776Z,961.96
2018-03-03T01:59:21.692Z,961.94
2018-03-03T02:00:21.600Z,961.90
2018-03-03T02:01:21.516Z,961.97
2018-03-03T02:02:21.426Z,961.93
2018-03-03T02:03:21.340Z,961.92
2018-03-03T02:04:21.253Z,961.93
2018-03-03T02:05:21.163Z,961.92
2018-03-03T02:06:21.081Z,961.86
2018-03-03T02:07:20.990Z,961.85
2018-03-03T02:08:20.897Z,961.78
2018-03-03T02:09:20.812Z,961.77
2018-03-03T02:10:20.728Z,961.74
2018-03-03T02:11:20.637Z,961.70
2018-03-03T02:12:20.555Z,961.74
2018-03-03T02:13:20.468Z,961.76
2018-03-03T02:14:20.385Z,961.72
2018-03-03T02:15:20.288Z,961.79
2018-03-03T02:16:20.198Z,961.78
2018-03-03T02:17:20.113Z,961.82
2018-03-03T02:18:20.022Z,961.83
2018-03-03T02:19:19.938Z,961.88
2018-03-03T02:20:19.849Z,961.86
2018-03-03T02:21:19.762Z,961.88
2018-03-03T02:22:19.673Z,961.87
2018-03-03T02:23:19.586Z,961.86
2018-03-03T02:24:19.498Z,961.95
2018-03-03T02:25:19.410Z,961.99
2018-03-03T02:26:19.324Z,961.99
2018-03-03T02:27:19.236Z,961.99
2018-03-03T02:28:19.149Z,962.00
2018-03-03T02:29:19.060Z,961.99
2018-03-03T02:30:18.977Z,962.00
2018-03-03T02:31:18.888Z,961.97
2018-03-03T02:32:18.796Z,961.89
2018-03-03T02:33:18.714Z,961.83
2018-03-03T02:34:18.623Z,961.79
2018-03-03T02:35:18.535Z,961.80
2018-03-03T02:36:18.451Z,961.77
2018-03-03T02:37:18.358Z,961.80
2018-03-03T02:38:18.274Z,961.79
2018-03-03T02:39:18.186Z,961.75
2018-03-03T02:40:18.097Z,961.69
2018-03-03T02:41:18.011Z,961.65
2018-03-03T02:42:17.923Z,961.63
2018-03-03T02:43:17.837Z,961.64
2018-03-03T02:44:17.744Z,961.64
2018-03-03T02:45:17.658Z,961.67
2018-03-03T02:46:17.573Z,961.68
2018-03-03T02:47:17.526Z,961.78
2018-03-03T02:48:17.396Z,961.80
2018-03-03T02:49:17.308Z,961.81
2018-03-03T02:50:17.220Z,961.80
2018-03-03T02:51:23.978Z,961.85
2018-03-03T02:52:17.046Z,961.83
2018-03-03T02:53:16.977Z,961.81
2018-03-03T02:54:16.869Z,961.74
2018-03-03T02:55:16.790Z,961.76
2018-03-03T02:56:16.698Z,961.80
2018-03-03T02:57:16.608Z,961.77
2018-03-03T02:58:16.519Z,961.75
2018-03-03T02:59:16.431Z,961.78
2018-03-03T03:00:16.342Z,961.73
2018-03-03T03:01:16.256Z,961.72
2018-03-03T03:02:16.169Z,961.65
2018-03-03T03:03:16.093Z,961.63
2018-03-03T03:04:15.992Z,961.60
2018-03-03T03:05:15.905Z,961.57
2018-03-03T03:06:15.816Z,961.50
2018-03-03T03:07:15.744Z,961.50
2018-03-03T03:08:15.650Z,961.47
2018-03-03T03:09:15.556Z,961.51
2018-03-03T03:10:15.472Z,961.53
2018-03-03T03:11:15.380Z,961.56
2018-03-03T03:12:15.291Z,961.55
2018-03-03T03:13:15.213Z,961.55
2018-03-03T03:14:15.119Z,961.57
2018-03-03T03:15:15.030Z,961.57
2018-03-03T03:16:14.942Z,961.55
2018-03-03T03:17:14.854Z,961.56
2018-03-03T03:18:14.771Z,961.52
2018-03-03T03:19:14.680Z,961.52
2018-03-03T03:20:14.591Z,961.51
2018-03-03T03:21:14.504Z,961.45
2018-03-03T03:22:14.417Z,961.45
2018-03-03T03:23:14.331Z,961.45
2018-03-03T03:24:14.256Z,961.43
2018-03-03T03:25:14.155Z,961.44
2018-03-03T03:26:14.068Z,961.40
2018-03-03T03:27:13.980Z,961.48
2018-03-03T03:28:13.890Z,961.50
2018-03-03T03:29:13.802Z,961.51
2018-03-03T03:30:13.719Z,961.49
2018-03-03T03:31:13.631Z,961.50
2018-03-03T03:32:13.557Z,961.52
2018-03-03T03:33:13.454Z,961.52
2018-03-03T03:34:13.367Z,961.53
2018-03-03T03:35:13.296Z,961.51
2018-03-03T03:36:13.191Z,961.46
2018-03-03T03:37:13.104Z,961.44
2018-03-03T03:38:13.021Z,961.43
2018-03-03T03:39:12.930Z,961.44
2018-03-03T03:40:12.841Z,961.47
2018-03-03T03:41:12.755Z,961.41
2018-03-03T03:42:12.666Z,961.40
2018-03-03T03:43:12.578Z,961.35
2018-03-03T03:44:12.492Z,961.32
2018-03-03T03:45:12.402Z,961.29
2018-03-03T03:46:12.319Z,961.32
2018-03-03T03:47:12.227Z,961.32
2018-03-03T03:48:12.140Z,961.26
2018-03-03T03:49:12.054Z,961.25
2018-03-03T03:50:11.975Z,961.32
2018-03-03T03:51:11.876Z,961.34
2018-03-03T03:52:11.792Z,961.31
2018-03-03T03:53:11.702Z,961.24
2018-03-03T03:54:11.614Z,961.23
2018-03-03T03:55:11.525Z,961.21
2018-03-03T03:56:11.440Z,961.23
2018-03-03T03:57:11.353Z,961.21
2018-03-03T03:58:11.265Z,961.17
2018-03-03T03:59:11.174Z,961.15
2018-03-03T04:00:11.087Z,961.13
2018-03-03T04:01:11.002Z,961.13
2018-03-03T04:02:10.912Z,961.10
2018-03-03T04:03:10.825Z,961.07
2018-03-03T04:04:10.768Z,961.00
2018-03-03T04:05:10.650Z,960.99
2018-03-03T04:06:10.562Z,961.02
2018-03-03T04:07:10.479Z,961.00
2018-03-03T04:08:10.393Z,960.99
2018-03-03T04:09:10.299Z,960.89
2018-03-03T04:10:10.210Z,960.88
2018-03-03T04:11:10.125Z,960.91
2018-03-03T04:12:10.034Z,960.91
2018-03-03T04:13:09.950Z,960.90
2018-03-03T04:14:09.861Z,960.91
2018-03-03T04:15:09.773Z,960.90
2018-03-03T04:16:09.684Z,960.91
2018-03-03T04:17:09.596Z,960.84
2018-03-03T04:18:09.511Z,960.85
2018-03-03T04:19:09.419Z,960.86
2018-03-03T04:20:09.337Z,960.86
2018-03-03T04:21:09.249Z,960.82
2018-03-03T04:22:09.155Z,960.87
2018-03-03T04:23:09.072Z,960.87
2018-03-03T04:24:08.983Z,960.89
2018-03-03T04:25:08.894Z,960.86
2018-03-03T04:26:08.807Z,960.94
2018-03-03T04:27:08.721Z,960.90
2018-03-03T04:28:08.630Z,960.89
2018-03-03T04:29:08.545Z,960.90
2018-03-03T04:30:08.458Z,960.89
2018-03-03T04:31:08.368Z,960.87
2018-03-03T04:32:08.280Z,960.84
2018-03-03T04:33:08.193Z,960.84
2018-03-03T04:34:08.106Z,960.86
2018-03-03T04:35:08.060Z,960.86
2018-03-03T04:36:07.930Z,960.84
2018-03-03T04:37:07.846Z,960.85
2018-03-03T04:38:07.756Z,960.89
2018-03-03T04:39:07.666Z,960.86
2018-03-03T04:40:07.578Z,960.87
2018-03-03T04:41:07.500Z,960.81
2018-03-03T04:42:07.402Z,960.80
2018-03-03T04:43:07.317Z,960.80
2018-03-03T04:44:07.226Z,960.78
2018-03-03T04:45:07.140Z,960.76
2018-03-03T04:46:07.058Z,960.71
2018-03-03T04:47:06.964Z,960.70
2018-03-03T04:48:06.876Z,960.75
2018-03-03T04:49:06.788Z,960.71
2018-03-03T04:50:06.698Z,960.63
2018-03-03T04:51:06.617Z,960.66
2018-03-03T04:52:06.524Z,960.64
2018-03-03T04:53:06.437Z,960.59
2018-03-03T04:54:06.349Z,960.57
2018-03-03T04:55:06.261Z,960.57
2018-03-03T04:56:06.172Z,960.56
2018-03-03T04:57:06.083Z,960.55
2018-03-03T04:58:05.998Z,960.53
2018-03-03T04:59:05.908Z,960.47
2018-03-03T05:00:05.818Z,960.51
2018-03-03T05:01:05.733Z,960.51
2018-03-03T05:02:05.646Z,960.51
2018-03-03T05:03:05.557Z,960.48
2018-03-03T05:04:05.476Z,960.51
2018-03-03T05:05:05.381Z,960.49
2018-03-03T05:06:05.295Z,960.49
2018-03-03T05:07:05.216Z,960.47
2018-03-03T05:08:05.119Z,960.47
2018-03-03T05:09:05.031Z,960.50
2018-03-03T05:10:04.957Z,960.55
2018-03-03T05:11:04.860Z,960.58
2018-03-03T05:12:04.770Z,960.63
2018-03-03T05:13:04.679Z,960.58
2018-03-03T05:14:04.590Z,960.56
2018-03-03T05:15:04.505Z,960.58
2018-03-03T05:16:04.419Z,960.56
2018-03-03T05:17:04.345Z,960.55
2018-03-03T05:18:04.240Z,960.53
2018-03-03T05:19:04.153Z,960.58
2018-03-03T05:20:04.063Z,960.54
2018-03-03T05:21:03.978Z,960.54
2018-03-03T05:22:03.888Z,960.53
2018-03-03T05:23:03.801Z,960.54
2018-03-03T05:24:03.711Z,960.55
2018-03-03T05:25:03.624Z,960.58
2018-03-03T05:26:03.539Z,960.62
2018-03-03T05:27:03.448Z,960.62
2018-03-03T05:28:03.364Z,960.62
2018-03-03T05:29:03.274Z,960.65
2018-03-03T05:30:03.182Z,960.64
2018-03-03T05:31:03.103Z,960.62
2018-03-03T05:32:03.011Z,960.59
2018-03-03T05:33:02.919Z,960.55
2018-03-03T05:34:02.832Z,960.53
2018-03-03T05:35:02.751Z,960.47
2018-03-03T05:36:02.654Z,960.46
2018-03-03T05:37:02.566Z,960.46
2018-03-03T05:38:02.479Z,960.46
2018-03-03T05:39:02.390Z,960.50
2018-03-03T05:40:02.301Z,960.47
2018-03-03T05:41:02.215Z,960.45
2018-03-03T05:42:02.129Z,960.39
2018-03-03T05:43:02.038Z,960.41
2018-03-03T05:44:01.952Z,960.38
2018-03-03T05:45:01.868Z,960.36
2018-03-03T05:46:01.775Z,960.41
2018-03-03T05:47:01.687Z,960.38
2018-03-03T05:48:01.601Z,960.36
2018-03-03T05:49:01.510Z,960.37
2018-03-03T05:50:01.422Z,960.31
2018-03-03T05:51:01.336Z,960.30
2018-03-03T05:52:01.245Z,960.31
2018-03-03T05:53:01.158Z,960.33
2018-03-03T05:54:01.069Z,960.32
2018-03-03T05:55:00.980Z,960.35
2018-03-03T05:56:00.893Z,960.30
2018-03-03T05:57:00.803Z,960.34
2018-03-03T05:58:00.716Z,960.33
2018-03-03T05:59:00.632Z,960.34
2018-03-03T06:00:00.543Z,960.32
2018-03-03T06:01:00.453Z,960.32
2018-03-03T06:02:00.364Z,960.33
2018-03-03T06:03:00.282Z,960.30
2018-03-03T06:04:00.192Z,960.31
2018-03-03T06:05:00.104Z,960.33
2018-03-03T06:06:00.012Z,960.35
2018-03-03T06:06:59.923Z,960.34
2018-03-03T06:07:59.844Z,960.33
2018-03-03T06:08:59.745Z,960.39
2018-03-03T06:09:59.659Z,960.37
2018-03-03T06:10:59.571Z,960.37
2018-03-03T06:11:59.481Z,960.38
2018-03-03T06:12:59.406Z,960.38
2018-03-03T06:13:59.307Z,960.39
2018-03-03T06:14:59.222Z,960.38
2018-03-03T06:15:59.129Z,960.40
2018-03-03T06:16:59.045Z,960.36
2018-03-03T06:17:58.953Z,960.36
2018-03-03T06:18:58.869Z,960.34
2018-03-03T06:19:58.777Z,960.33
2018-03-03T06:20:58.689Z,960.39
2018-03-03T06:21:58.604Z,960.35
2018-03-03T06:22:58.512Z,960.34
2018-03-03T06:23:58.423Z,960.35
2018-03-03T06:24:58.335Z,960.34
2018-03-03T06:25:58.247Z,960.28
2018-03-03T06:26:58.159Z,960.32
2018-03-03T06:27:58.080Z,960.32
2018-03-03T06:28:57.983Z,960.32
2018-03-03T06:29:57.920Z,960.38
2018-03-03T06:30:57.806Z,960.36
2018-03-03T06:31:57.719Z,960.40
2018-03-03T06:32:57.633Z,960.30
2018-03-03T06:33:57.544Z,960.36
2018-03-03T06:34:57.455Z,960.39
2018-03-03T06:35:57.365Z,960.36
2018-03-03T06:36:57.279Z,960.37
2018-03-03T06:37:57.190Z,960.41
2018-03-03T06:38:57.104Z,960.40
2018-03-03T06:39:57.017Z,960.42
2018-03-03T06:40:56.925Z,960.46
2018-03-03T06:41:56.837Z,960.45
2018-03-03T06:42:56.750Z,960.49
2018-03-03T06:43:56.659Z,960.47
2018-03-03T06:44:56.578Z,960.49
2018-03-03T06:45:56.486Z,960.46
2018-03-03T06:46:56.397Z,960.44
2018-03-03T06:47:56.308Z,960.35
2018-03-03T06:48:56.220Z,960.40
2018-03-03T06:49:56.133Z,960.35
2018-03-03T06:50:56.043Z,960.35
2018-03-03T06:51:55.955Z,960.37
2018-03-03T06:52:55.868Z,960.38
2018-03-03T06:53:55.779Z,960.34
2018-03-03T06:54:55.711Z,960.36
2018-03-03T06:55:55.602Z,960.36
2018-03-03T06:56:55.517Z,960.37
2018-03-03T06:57:55.428Z,960.39
2018-03-03T06:58:55.343Z,960.41
2018-03-03T06:59:55.251Z,960.38
2018-03-03T07:00:55.162Z,960.36
2018-03-03T07:01:55.073Z,960.35
2018-03-03T07:02:54.986Z,960.35
2018-03-03T07:03:54.899Z,960.34
2018-03-03T07:04:54.813Z,960.31
2018-03-03T07:05:54.723Z,960.30
2018-03-03T07:06:54.636Z,960.32
2018-03-03T07:07:54.548Z,960.27
2018-03-03T07:08:54.458Z,960.25
2018-03-03T07:09:54.383Z,960.27
2018-03-03T07:10:54.282Z,960.23
2018-03-03T07:11:54.195Z,960.20
2018-03-03T07:12:54.107Z,960.13
2018-03-03T07:13:54.018Z,960.10
2018-03-03T07:14:53.933Z,960.16
2018-03-03T07:15:53.845Z,960.15
2018-03-03T07:16:53.761Z,960.19
2018-03-03T07:17:53.668Z,960.25
2018-03-03T07:18:53.582Z,960.23
2018-03-03T07:19:53.501Z,960.24
2018-03-03T07:20:53.402Z,960.22
2018-03-03T07:21:53.315Z,960.23
2018-03-03T07:22:53.229Z,960.24
2018-03-03T07:23:53.139Z,960.25
2018-03-03T07:24:53.052Z,960.24
2018-03-03T07:25:52.965Z,960.24
2018-03-03T07:26:52.876Z,960.26
2018-03-03T07:27:52.789Z,960.23
2018-03-03T07:28:52.701Z,960.21
2018-03-03T07:29:52.611Z,960.19
2018-03-03T07:30:52.526Z,960.20
2018-03-03T07:31:52.438Z,960.21
2018-03-03T07:32:52.350Z,960.18
2018-03-03T07:33:52.261Z,960.21
2018-03-03T07:34:52.174Z,960.18
2018-03-03T07:35:52.089Z,960.18
2018-03-03T07:36:52.000Z,960.20
2018-03-03T07:37:51.912Z,960.20
2018-03-03T07:38:51.826Z,960.18
2018-03-03T07:39:51.737Z,960.20
2018-03-03T07:40:51.647Z,960.21
2018-03-03T07:41:51.562Z,960.18
2018-03-03T07:42:51.473Z,960.18
2018-03-03T07:43:51.385Z,960.15
2018-03-03T07:44:51.299Z,960.11
2018-03-03T07:45:51.211Z,960.18
2018-03-03T07:46:51.122Z,960.15
2018-03-03T07:47:51.033Z,960.13
2018-03-03T07:48:50.946Z,960.15
2018-03-03T07:49:50.874Z,960.17
2018-03-03T07:50:50.770Z,960.20
2018-03-03T07:51:50.685Z,960.18
2018-03-03T07:52:50.596Z,960.23
2018-03-03T07:53:50.508Z,960.26
2018-03-03T07:54:50.428Z,960.22
2018-03-03T07:55:50.346Z,960.27
2018-03-03T07:56:50.247Z,960.20
2018-03-03T07:57:50.160Z,960.23
2018-03-03T07:58:50.071Z,960.26
2018-03-03T07:59:49.983Z,960.24
2018-03-03T08:00:49.897Z,960.21
2018-03-03T08:01:49.811Z,960.24
2018-03-03T08:02:49.725Z,960.21
2018-03-03T08:03:49.636Z,960.22
2018-03-03T08:04:49.550Z,960.22
2018-03-03T08:05:49.461Z,960.21
2018-03-03T08:06:49.374Z,960.22
2018-03-03T08:07:49.286Z,960.24
2018-03-03T08:08:49.196Z,960.18
2018-03-03T08:09:49.113Z,960.23
2018-03-03T08:10:49.025Z,960.29
2018-03-03T08:11:48.936Z,960.26
2018-03-03T08:12:48.912Z,960.27
2018-03-03T08:13:48.781Z,960.23
2018-03-03T08:14:48.688Z,960.28
2018-03-03T08:15:48.590Z,960.29
2018-03-03T08:16:48.504Z,960.28
2018-03-03T08:17:48.412Z,960.27
2018-03-03T08:18:48.326Z,960.23
2018-03-03T08:19:48.238Z,960.23
2018-03-03T08:20:48.151Z,960.24
2018-03-03T08:21:48.064Z,960.25
2018-03-03T08:22:47.977Z,960.22
2018-03-03T08:23:47.888Z,960.25
2018-03-03T08:24:47.821Z,960.23
2018-03-03T08:25:47.715Z,960.24
2018-03-03T08:26:47.627Z,960.17
2018-03-03T08:27:47.555Z,960.21
2018-03-03T08:28:47.452Z,960.24
2018-03-03T08:29:47.365Z,960.24
2018-03-03T08:30:47.282Z,960.19
2018-03-03T08:31:47.190Z,960.18
2018-03-03T08:32:47.105Z,960.19
2018-03-03T08:33:47.018Z,960.15
2018-03-03T08:34:46.930Z,960.14
2018-03-03T08:35:46.842Z,960.16
2018-03-03T08:36:46.758Z,960.15
2018-03-03T08:37:46.669Z,960.13
2018-03-03T08:38:46.870Z,960.15
2018-03-03T08:39:46.494Z,960.13
2018-03-03T08:40:46.406Z,960.15
2018-03-03T08:41:46.321Z,960.14
2018-03-03T08:42:46.233Z,960.13
2018-03-03T08:43:46.147Z,960.15
2018-03-03T08:44:46.058Z,960.11
2018-03-03T08:45:46.049Z,960.10
2018-03-03T08:46:45.885Z,960.09
2018-03-03T08:47:45.798Z,960.08
2018-03-03T08:48:45.713Z,960.04
2018-03-03T08:49:45.627Z,960.06
2018-03-03T08:50:45.541Z,960.05
2018-03-03T08:51:45.452Z,960.05
2018-03-03T08:52:45.365Z,960.09
2018-03-03T08:53:45.279Z,960.11
2018-03-03T08:54:45.193Z,960.06
2018-03-03T08:55:45.106Z,960.06
2018-03-03T08:56:45.021Z,960.06
2018-03-03T08:57:44.934Z,960.03
2018-03-03T08:58:44.848Z,960.05
2018-03-03T08:59:44.760Z,960.03
2018-03-03T09:00:44.673Z,960.03
2018-03-03T09:01:44.589Z,960.02
2018-03-03T09:02:44.503Z,960.02
2018-03-03T09:03:44.415Z,960.00
2018-03-03T09:04:44.329Z,960.01
2018-03-03T09:05:44.242Z,960.00
2018-03-03T09:06:44.161Z,959.96
2018-03-03T09:07:44.070Z,959.98
2018-03-03T09:08:43.986Z,959.95
2018-03-03T09:09:43.897Z,959.97
2018-03-03T09:10:43.846Z,959.95
2018-03-03T09:11:43.728Z,959.93
2018-03-03T09:12:43.642Z,959.95
2018-03-03T09:13:43.556Z,959.93
2018-03-03T09:14:43.470Z,959.89
2018-03-03T09:15:43.383Z,959.89
2018-03-03T09:16:43.298Z,959.89
2018-03-03T09:17:43.213Z,959.88
2018-03-03T09:18:43.126Z,959.86
2018-03-03T09:19:43.042Z,959.87
2018-03-03T09:20:42.953Z,959.83
2018-03-03T09:21:42.868Z,959.86
2018-03-03T09:22:42.785Z,959.86
2018-03-03T09:23:42.698Z,959.80
2018-03-03T09:24:42.612Z,959.84
2018-03-03T09:25:42.531Z,959.87
2018-03-03T09:26:42.445Z,959.85
2018-03-03T09:27:42.356Z,959.89
2018-03-03T09:28:42.276Z,959.86
2018-03-03T09:29:42.186Z,959.88
2018-03-03T09:30:42.102Z,959.88
2018-03-03T09:31:42.015Z,959.87
2018-03-03T09:32:41.931Z,959.88
2018-03-03T09:33:41.845Z,959.86
2018-03-03T09:34:41.760Z,959.88
2018-03-03T09:35:41.676Z,959.89
2018-03-03T09:36:41.592Z,959.89
2018-03-03T09:37:41.509Z,959.85
2018-03-03T09:38:41.423Z,959.87
2018-03-03T09:39:41.341Z,959.85
2018-03-03T09:40:41.252Z,959.87
2018-03-03T09:41:41.168Z,959.86
2018-03-03T09:42:41.082Z,959.84
2018-03-03T09:43:40.998Z,959.81
2018-03-03T09:44:40.921Z,959.81
2018-03-03T09:45:40.833Z,959.80
2018-03-03T09:46:40.750Z,959.84
2018-03-03T09:47:40.660Z,959.83
2018-03-03T09:48:40.574Z,959.85
2018-03-03T09:49:40.494Z,959.87
2018-03-03T09:50:40.407Z,959.87
2018-03-03T09:51:40.322Z,959.87
2018-03-03T09:52:40.256Z,959.86
2018-03-03T09:53:40.153Z,959.84
2018-03-03T09:54:40.071Z,959.84
2018-03-03T09:55:39.984Z,959.80
2018-03-03T09:56:39.902Z,959.82
2018-03-03T09:57:39.820Z,959.86
2018-03-03T09:58:39.737Z,959.88
2018-03-03T09:59:39.681Z,959.90
2018-03-03T10:00:39.570Z,959.88
2018-03-03T10:01:43.360Z,959.88
2018-03-03T10:02:39.400Z,959.83
2018-03-03T10:03:39.316Z,959.84
2018-03-03T10:04:39.236Z,959.89
2018-03-03T10:05:39.153Z,959.86
2018-03-03T10:06:39.070Z,959.83
2018-03-03T10:07:38.989Z,959.82
2018-03-03T10:08:38.927Z,959.80
2018-03-03T10:09:38.840Z,959.78
2018-03-03T10:10:38.756Z,959.75
2018-03-03T10:11:38.653Z,959.72
2018-03-03T10:12:38.569Z,959.75
2018-03-03T10:13:38.485Z,959.72
2018-03-03T10:14:38.404Z,959.71
2018-03-03T10:15:38.329Z,959.71
2018-03-03T10:16:38.239Z,959.68
2018-03-03T10:17:38.151Z,959.64
2018-03-03T10:18:38.152Z,959.62
2018-03-03T10:19:37.989Z,959.62
2018-03-03T10:20:37.906Z,959.61
2018-03-03T10:21:37.818Z,959.62
2018-03-03T10:22:37.742Z,959.56
2018-03-03T10:23:37.654Z,959.55
2018-03-03T10:24:37.570Z,959.51
2018-03-03T10:25:37.486Z,959.50
2018-03-03T10:26:37.403Z,959.51
2018-03-03T10:27:37.319Z,959.55
2018-03-03T10:28:37.236Z,959.54
2018-03-03T10:29:37.161Z,959.52
2018-03-03T10:30:37.071Z,959.50
2018-03-03T10:31:36.991Z,959.48
2018-03-03T10:32:36.908Z,959.46
2018-03-03T10:33:36.822Z,959.54
2018-03-03T10:34:36.740Z,959.57
2018-03-03T10:35:36.672Z,959.57
2018-03-03T10:36:36.583Z,959.59
2018-03-03T10:37:36.493Z,959.61
2018-03-03T10:38:36.410Z,959.60
2018-03-03T10:39:36.325Z,959.64
2018-03-03T10:40:36.243Z,959.64
2018-03-03T10:41:36.161Z,959.63
2018-03-03T10:42:36.089Z,959.62
2018-03-03T10:43:35.994Z,959.60
2018-03-03T10:44:35.920Z,959.61
2018-03-03T10:45:35.826Z,959.61
2018-03-03T10:46:35.744Z,959.60
2018-03-03T10:47:35.661Z,959.60
2018-03-03T10:48:35.581Z,959.69
2018-03-03T10:49:35.548Z,959.67
2018-03-03T10:50:35.414Z,959.69
2018-03-03T10:51:35.341Z,959.63
2018-03-03T10:52:35.244Z,959.69
2018-03-03T10:53:35.163Z,959.60
2018-03-03T10:54:35.084Z,959.57
2018-03-03T10:55:34.998Z,959.56
2018-03-03T10:56:34.914Z,959.53
2018-03-03T10:57:34.830Z,959.52
2018-03-03T10:58:34.799Z,959.41
2018-03-03T10:59:34.667Z,959.38
2018-03-03T11:00:34.582Z,959.42
2018-03-03T11:01:34.501Z,959.44
2018-03-03T11:02:34.419Z,959.38
2018-03-03T11:03:34.340Z,959.39
2018-03-03T11:04:34.255Z,959.37
2018-03-03T11:05:34.301Z,959.39
2018-03-03T11:06:34.096Z,959.40
2018-03-03T11:07:34.013Z,959.37
2018-03-03T11:08:33.939Z,959.36
2018-03-03T11:09:33.847Z,959.35
2018-03-03T11:10:33.766Z,959.40
2018-03-03T11:11:33.683Z,959.38
2018-03-03T11:12:33.602Z,959.39
2018-03-03T11:13:33.520Z,959.39
2018-03-03T11:14:33.445Z,959.41
2018-03-03T11:15:33.367Z,959.39
2018-03-03T11:16:33.281Z,959.37
2018-03-03T11:17:33.201Z,959.30
2018-03-03T11:18:33.116Z,959.33
2018-03-03T11:19:33.037Z,959.32
2018-03-03T11:20:32.954Z,959.33
2018-03-03T11:21:32.875Z,959.34
2018-03-03T11:22:32.800Z,959.38
2018-03-03T11:23:32.709Z,959.39
2018-03-03T11:24:32.633Z,959.38
2018-03-03T11:25:32.547Z,959.49
2018-03-03T11:26:32.467Z,959.46
2018-03-03T11:27:32.389Z,959.39
2018-03-03T11:28:32.328Z,959.40
2018-03-03T11:29:32.228Z,959.37
2018-03-03T11:30:32.151Z,959.36
2018-03-03T11:31:32.069Z,959.39
2018-03-03T11:32:31.993Z,959.31
2018-03-03T11:33:31.915Z,959.43
2018-03-03T11:34:31.837Z,959.36
2018-03-03T11:35:31.757Z,959.38
2018-03-03T11:36:31.687Z,959.36
2018-03-03T11:37:31.603Z,959.35
2018-03-03T11:38:31.524Z,959.44
2018-03-03T11:39:31.453Z,959.39
2018-03-03T11:40:33.133Z,959.40
2018-03-03T11:41:31.308Z,959.35
2018-03-03T11:42:31.226Z,959.37
2018-03-03T11:43:31.150Z,959.33
2018-03-03T11:44:31.074Z,959.31
2018-03-03T11:45:31.001Z,959.32
2018-03-03T11:46:30.928Z,959.34
2018-03-03T11:47:30.856Z,959.34
2018-03-03T11:48:30.784Z,959.36
2018-03-03T11:49:30.712Z,959.34
2018-03-03T11:50:30.640Z,959.37
2018-03-03T11:51:30.570Z,959.32
2018-03-03T11:52:30.499Z,959.35
2018-03-03T11:53:30.429Z,959.31
2018-03-03T11:54:30.359Z,959.29
2018-03-03T11:55:30.289Z,959.35
2018-03-03T11:56:30.219Z,959.31
2018-03-03T11:57:30.148Z,959.30
2018-03-03T11:58:30.083Z,959.29
2018-03-03T11:59:30.011Z,959.22
2018-03-03T12:00:30.007Z,959.24
2018-03-03T12:01:29.876Z,959.25
2018-03-03T12:02:29.814Z,959.22
2018-03-03T12:03:29.738Z,959.20
2018-03-03T12:04:29.670Z,959.13
2018-03-03T12:05:29.601Z,959.13
2018-03-03T12:06:29.535Z,959.05
2018-03-03T12:07:29.462Z,959.03
2018-03-03T12:08:29.395Z,959.05
2018-03-03T12:09:29.325Z,959.04
2018-03-03T12:10:29.256Z,959.11
2018-03-03T12:11:29.187Z,959.12
2018-03-03T12:12:29.120Z,959.10
2018-03-03T12:13:29.051Z,959.05
2018-03-03T12:14:28.987Z,959.09
2018-03-03T12:15:28.914Z,959.01
2018-03-03T12:16:28.881Z,959.00
2018-03-03T12:17:28.773Z,958.95
2018-03-03T12:18:28.702Z,958.92
2018-03-03T12:19:28.630Z,958.89
2018-03-03T12:20:28.560Z,958.88
2018-03-03T12:21:28.492Z,958.92
2018-03-03T12:22:28.426Z,958.92
2018-03-03T12:23:28.377Z,958.93
2018-03-03T12:24:28.282Z,958.95
2018-03-03T12:25:28.208Z,958.97
2018-03-03T12:26:28.162Z,958.95
2018-03-03T12:27:28.072Z,958.95